createdAt,value
2023-04-01T00:00:22.374Z,17.73
2023-04-01T00:03:12.508Z,10.57
2023-04-01T00:05:39.357Z,9.95
2023-04-01T00:08:24.850Z,10.48
2023-04-01T00:10:59.842Z,7.40
2023-04-01T00:13:31.346Z,8.02
2023-04-01T00:16:41.962Z,9.18
2023-04-01T00:19:52.626Z,7.45
2023-04-01T00:22:43.699Z,7.35
2023-04-01T00:25:48.632Z,6.50
2023-04-01T00:28:29.214Z,7.50
2023-04-01T00:31:02.097Z,6.97
2023-04-01T00:33:29.720Z,7.55
2023-04-01T00:36:17.431Z,6.40
2023-04-01T00:41:16.115Z,8.15
2023-04-01T00:43:54.045Z,8.88
2023-04-01T00:46:22.455Z,5.38
2023-04-01T00:49:10.786Z,5.28
2023-04-01T00:51:39.847Z,5.28
2023-04-01T00:54:10.224Z,6.60
2023-04-01T00:57:36.709Z,4.65
2023-04-01T01:03:22.532Z,6.80
2023-04-01T01:06:23.629Z,4.57
2023-04-01T01:12:24.074Z,5.45
2023-04-01T01:22:17.821Z,3.97
2023-04-01T01:25:08.791Z,3.92
2023-04-01T01:28:06.974Z,4.85
2023-04-01T01:30:44.047Z,4.72
2023-04-01T01:34:03.499Z,6.65
2023-04-01T01:37:19.971Z,5.40
2023-04-01T01:39:57.689Z,6.00
2023-04-01T01:42:42.071Z,5.18
2023-04-01T01:45:30.905Z,5.78
2023-04-01T01:48:06.487Z,6.78
2023-04-01T01:54:49.177Z,5.55
2023-04-01T01:56:49.844Z,4.40
2023-04-01T01:59:59.340Z,6.10
2023-04-01T02:02:33.683Z,3.92
2023-04-01T02:05:07.505Z,5.05
2023-04-01T02:07:51.306Z,5.43
2023-04-01T02:10:27.340Z,5.32
2023-04-01T02:16:13.392Z,4.93
2023-04-01T02:25:56.601Z,5.22
2023-04-01T02:29:02.008Z,6.38
2023-04-01T02:31:50.489Z,6.80
2023-04-01T02:34:37.633Z,5.70
2023-04-01T02:37:18.801Z,7.65
2023-04-01T02:39:52.112Z,6.05
2023-04-01T02:42:19.763Z,6.70
2023-04-01T02:44:49.885Z,6.10
2023-04-01T02:47:18.322Z,5.43
2023-04-01T02:50:02.467Z,5.53
2023-04-01T02:52:48.124Z,3.90
2023-04-01T02:55:18.715Z,5.82
2023-04-01T02:58:09.696Z,4.70
2023-04-01T03:00:38.169Z,4.80
2023-04-01T03:03:10.732Z,4.93
2023-04-01T03:05:43.439Z,5.88
2023-04-01T03:08:45.421Z,4.28
2023-04-01T03:11:03.641Z,5.45
2023-04-01T03:13:31.791Z,4.45
2023-04-01T03:16:15.189Z,5.50
2023-04-01T03:18:58.210Z,4.75
2023-04-01T03:24:13.649Z,5.55
2023-04-01T03:26:51.960Z,6.13
2023-04-01T03:29:25.050Z,5.57
2023-04-01T03:31:59.710Z,5.10
2023-04-01T03:34:31.722Z,6.57
2023-04-01T03:36:59.892Z,2.90
2023-04-01T03:39:36.273Z,5.10
2023-04-01T03:42:03.268Z,4.45
2023-04-01T03:44:38.351Z,5.30
2023-04-01T03:47:05.226Z,4.60
2023-04-01T03:49:48.520Z,6.43
2023-04-01T03:52:15.669Z,5.80
2023-04-01T03:54:52.062Z,5.10
2023-04-01T03:57:22.786Z,4.22
2023-04-01T03:59:55.600Z,4.78
2023-04-01T04:02:32.467Z,5.43
2023-04-01T04:05:09.146Z,4.30
2023-04-01T04:07:39.545Z,4.68
2023-04-01T04:10:10.576Z,5.22
2023-04-01T04:12:37.594Z,4.80
2023-04-01T04:15:08.429Z,5.00
2023-04-01T04:17:40.449Z,5.57
2023-04-01T04:20:22.524Z,4.10
2023-04-01T04:22:50.369Z,10.52
2023-04-01T04:25:19.948Z,10.57
2023-04-01T04:27:49.704Z,9.02
2023-04-01T04:30:20.052Z,6.82
2023-04-01T04:32:47.123Z,8.07
2023-04-01T04:35:30.035Z,6.63
2023-04-01T04:38:00.300Z,6.68
2023-04-01T04:40:33.390Z,7.28
2023-04-01T04:43:24.749Z,6.13
2023-04-01T04:48:55.678Z,7.85
2023-04-01T04:52:00.963Z,8.48
2023-04-01T04:54:41.439Z,10.55
2023-04-01T04:57:19.833Z,8.18
2023-04-01T04:59:50.757Z,9.70
2023-04-01T05:02:42.353Z,9.13
2023-04-01T05:05:13.285Z,10.30
2023-04-01T05:08:51.532Z,12.35
2023-04-01T05:10:54.736Z,11.45
2023-04-01T05:13:22.454Z,10.68
2023-04-01T05:15:49.824Z,12.38
2023-04-01T05:19:03.409Z,11.07
2023-04-01T05:21:06.545Z,9.70
2023-04-01T05:28:46.883Z,9.20
2023-04-01T05:31:18.883Z,8.18
2023-04-01T05:36:30.402Z,10.32
2023-04-01T05:39:01.090Z,9.50
2023-04-01T05:44:16.304Z,8.00
2023-04-01T05:49:28.934Z,10.63
2023-04-01T05:52:08.703Z,9.18
2023-04-01T05:54:47.413Z,9.90
2023-04-01T05:57:14.926Z,7.57
2023-04-01T05:59:41.948Z,7.68
2023-04-01T06:02:21.064Z,14.07
2023-04-01T06:04:48.930Z,10.35
2023-04-01T06:07:18.700Z,13.18
2023-04-01T06:09:50.176Z,13.73
2023-04-01T06:12:31.021Z,12.52
2023-04-01T06:15:12.064Z,11.70
2023-04-01T06:18:24.116Z,12.85
2023-04-01T06:21:20.305Z,11.32
2023-04-01T06:24:06.837Z,14.50
2023-04-01T06:27:08.174Z,15.23
2023-04-01T06:30:07.014Z,13.63
2023-04-01T06:36:17.225Z,13.80
2023-04-01T06:38:59.244Z,14.15
2023-04-01T06:41:55.088Z,17.33
2023-04-01T06:44:31.882Z,20.88
2023-04-01T06:47:38.742Z,17.03
2023-04-01T06:50:59.580Z,17.30
2023-04-01T06:53:44.398Z,17.50
2023-04-01T06:56:41.127Z,14.77
2023-04-01T06:59:14.692Z,16.25
2023-04-01T07:02:08.541Z,15.85
2023-04-01T07:07:31.678Z,19.08
2023-04-01T07:10:20.651Z,18.40
2023-04-01T07:12:59.698Z,19.35
2023-04-01T07:15:44.570Z,13.68
2023-04-01T07:18:57.092Z,19.23
2023-04-01T07:21:44.744Z,13.73
2023-04-01T07:27:01.065Z,12.23
2023-04-01T07:29:30.438Z,14.18
2023-04-01T07:32:18.928Z,13.65
2023-04-01T07:34:57.268Z,7.55
2023-04-01T07:38:05.514Z,5.00
2023-04-01T07:40:32.691Z,3.92
2023-04-01T07:43:38.273Z,6.63
2023-04-01T07:46:24.721Z,13.35
2023-04-01T07:49:07.135Z,9.67
2023-04-01T07:52:06.802Z,9.20
2023-04-01T07:54:45.323Z,12.35
2023-04-01T07:58:13.929Z,5.32
2023-04-01T08:01:01.506Z,2.35
2023-04-01T08:06:30.502Z,3.55
2023-04-01T08:09:00.440Z,5.70
2023-04-01T08:11:47.746Z,4.20
2023-04-01T08:14:41.827Z,9.18
2023-04-01T08:17:39.928Z,4.03
2023-04-01T08:20:28.220Z,4.45
2023-04-01T08:23:25.241Z,5.05
2023-04-01T08:26:00.701Z,4.30
2023-04-01T08:29:06.699Z,4.43
2023-04-01T08:31:53.481Z,3.33
2023-04-01T08:34:47.078Z,4.30
2023-04-01T08:40:57.474Z,3.00
2023-04-01T08:43:58.935Z,4.25
2023-04-01T08:47:12.340Z,6.00
2023-04-01T08:50:10.145Z,4.07
2023-04-01T08:53:03.426Z,3.17
2023-04-01T08:59:11.903Z,3.85
2023-04-01T09:05:42.489Z,3.58
2023-04-01T09:09:00.180Z,3.45
2023-04-01T09:12:04.572Z,2.05
2023-04-01T09:15:41.532Z,5.15
2023-04-01T09:18:33.176Z,8.85
2023-04-01T09:21:13.441Z,9.10
2023-04-01T09:24:19.301Z,5.90
2023-04-01T09:27:09.561Z,4.20
2023-04-01T09:29:55.382Z,4.03
2023-04-01T09:32:47.019Z,4.35
2023-04-01T09:36:00.044Z,4.53
2023-04-01T09:38:39.074Z,5.10
2023-04-01T09:41:28.572Z,4.90
2023-04-01T09:45:00.749Z,6.88
2023-04-01T09:47:44.956Z,6.22
2023-04-01T09:50:41.141Z,5.22
2023-04-01T09:53:08.537Z,5.10
2023-04-01T09:56:04.008Z,5.85
2023-04-01T09:58:50.231Z,6.55
2023-04-01T10:01:48.172Z,6.15
2023-04-01T10:04:37.661Z,5.70
2023-04-01T10:07:45.004Z,5.13
2023-04-01T10:10:36.677Z,5.57
2023-04-01T10:13:21.952Z,9.35
2023-04-01T10:16:25.650Z,7.97
2023-04-01T10:19:37.845Z,11.40
2023-04-01T10:22:38.893Z,14.27
2023-04-01T10:25:27.327Z,3.88
2023-04-01T10:28:25.184Z,3.65
2023-04-01T10:31:51.941Z,4.65
2023-04-01T10:37:55.552Z,6.07
2023-04-01T10:40:31.243Z,5.25
2023-04-01T10:43:35.735Z,3.35
2023-04-01T10:46:05.394Z,4.22
2023-04-01T10:49:06.522Z,4.57
2023-04-01T10:52:11.185Z,3.97
2023-04-01T10:54:50.662Z,4.60
2023-04-01T10:57:38.559Z,4.28
2023-04-01T11:04:12.097Z,3.47
2023-04-01T11:07:11.392Z,3.70
2023-04-01T11:10:09.763Z,4.47
2023-04-01T11:13:11.661Z,4.35
2023-04-01T11:16:13.527Z,3.88
2023-04-01T11:19:37.818Z,2.22
2023-04-01T11:22:50.084Z,3.75
2023-04-01T11:25:52.103Z,3.35
2023-04-01T11:28:42.193Z,3.63
2023-04-01T11:32:10.542Z,2.22
2023-04-01T11:34:52.506Z,2.20
2023-04-01T11:37:48.034Z,3.28
2023-04-01T11:40:40.433Z,3.35
2023-04-01T11:43:45.034Z,5.10
2023-04-01T11:46:14.255Z,5.50
2023-04-01T11:49:07.278Z,2.95
2023-04-01T11:52:13.799Z,5.50
2023-04-01T11:55:02.366Z,6.45
2023-04-01T11:58:05.485Z,4.35
2023-04-01T12:00:43.944Z,3.72
2023-04-01T12:03:23.576Z,6.80
2023-04-01T12:06:11.718Z,4.40
2023-04-01T12:09:05.439Z,3.85
2023-04-01T12:11:57.077Z,3.92
2023-04-01T12:14:40.818Z,3.95
2023-04-01T12:17:38.948Z,6.30
2023-04-01T12:20:30.087Z,6.68
2023-04-01T12:23:24.587Z,6.00
2023-04-01T12:25:57.307Z,5.75
2023-04-01T12:28:32.255Z,6.68
2023-04-01T12:31:25.121Z,5.75
2023-04-01T12:34:21.600Z,4.63
2023-04-01T12:36:59.797Z,5.10
2023-04-01T12:40:04.450Z,9.82
2023-04-01T12:42:49.221Z,5.43
2023-04-01T12:45:31.428Z,4.20
2023-04-01T12:48:32.312Z,6.50
2023-04-01T12:51:29.030Z,6.85
2023-04-01T12:54:31.538Z,6.85
2023-04-01T12:57:04.333Z,6.20
2023-04-01T12:59:34.617Z,5.55
2023-04-01T13:02:17.352Z,6.30
2023-04-01T13:04:56.485Z,14.82
2023-04-01T13:08:00.237Z,8.25
2023-04-01T13:10:48.810Z,6.07
2023-04-01T13:13:37.829Z,4.80
2023-04-01T13:16:41.715Z,7.72
2023-04-01T13:19:15.901Z,4.82
2023-04-01T13:21:42.568Z,6.30
2023-04-01T13:24:47.319Z,5.70
2023-04-01T13:27:22.521Z,7.97
2023-04-01T13:30:20.085Z,6.20
2023-04-01T13:33:36.464Z,5.45
2023-04-01T13:36:19.639Z,5.82
2023-04-01T13:39:21.672Z,9.77
2023-04-01T13:42:26.399Z,5.88
2023-04-01T13:45:02.097Z,5.28
2023-04-01T13:47:32.086Z,7.25
2023-04-01T13:50:47.163Z,7.80
2023-04-01T13:54:00.627Z,5.47
2023-04-01T14:00:17.049Z,5.90
2023-04-01T14:03:08.787Z,7.25
2023-04-01T14:05:51.910Z,8.95
2023-04-01T14:08:45.467Z,7.40
2023-04-01T14:11:30.775Z,5.30
2023-04-01T14:14:07.975Z,5.60
2023-04-01T14:16:41.176Z,3.95
2023-04-01T14:19:14.130Z,6.68
2023-04-01T14:22:16.740Z,4.95
2023-04-01T14:25:13.536Z,6.13
2023-04-01T14:27:56.334Z,7.93
2023-04-01T14:30:49.609Z,4.82
2023-04-01T14:33:43.456Z,11.48
2023-04-01T14:36:45.390Z,11.43
2023-04-01T14:39:41.654Z,7.45
2023-04-01T14:42:22.048Z,7.68
2023-04-01T14:45:23.932Z,6.50
2023-04-01T14:48:38.751Z,6.20
2023-04-01T14:51:34.022Z,3.10
2023-04-01T14:54:46.463Z,5.35
2023-04-01T14:57:29.500Z,4.68
2023-04-01T15:00:05.470Z,3.92
2023-04-01T15:02:50.875Z,1.60
2023-04-01T15:05:26.506Z,3.92
2023-04-01T15:08:04.440Z,4.07
2023-04-01T15:10:43.843Z,2.20
2023-04-01T15:13:26.189Z,2.20
2023-04-01T15:15:59.077Z,4.28
2023-04-01T15:18:52.113Z,6.57
2023-04-01T15:21:57.440Z,3.90
2023-04-01T15:24:49.588Z,4.60
2023-04-01T15:27:25.468Z,4.25
2023-04-01T15:30:20.053Z,5.00
2023-04-01T15:33:08.664Z,5.18
2023-04-01T15:36:00.728Z,3.47
2023-04-01T15:38:27.783Z,2.70
2023-04-01T15:41:27.874Z,3.50
2023-04-01T15:43:55.485Z,2.83
2023-04-01T15:46:31.479Z,13.27
2023-04-01T15:49:16.933Z,13.40
2023-04-01T15:52:02.480Z,9.02
2023-04-01T15:54:47.618Z,3.72
2023-04-01T15:57:34.891Z,3.95
2023-04-01T16:00:17.255Z,9.82
2023-04-01T16:03:02.516Z,8.82
2023-04-01T16:06:11.570Z,13.27
2023-04-01T16:09:00.104Z,7.80
2023-04-01T16:11:58.252Z,7.00
2023-04-01T16:14:55.125Z,4.22
2023-04-01T16:17:39.304Z,9.95
2023-04-01T16:20:19.417Z,13.18
2023-04-01T16:23:48.066Z,13.82
2023-04-01T16:26:44.832Z,9.18
2023-04-01T16:29:30.658Z,5.57
2023-04-01T16:32:34.514Z,57.03
2023-04-01T16:35:26.441Z,46.30
2023-04-01T16:38:37.296Z,28.98
2023-04-01T16:42:13.007Z,39.58
2023-04-01T16:45:03.540Z,18.38
2023-04-01T16:47:43.960Z,19.58
2023-04-01T16:50:24.720Z,16.23
2023-04-01T16:53:19.503Z,13.20
2023-04-01T16:56:21.498Z,12.43
2023-04-01T16:59:39.193Z,11.77
2023-04-01T17:02:28.352Z,9.43
2023-04-01T17:05:04.705Z,12.40
2023-04-01T17:07:58.285Z,14.75
2023-04-01T17:11:17.894Z,9.35
2023-04-01T17:13:57.707Z,8.63
2023-04-01T17:17:04.679Z,7.97
2023-04-01T17:20:07.317Z,7.80
2023-04-01T17:23:04.273Z,6.95
2023-04-01T17:25:51.765Z,6.65
2023-04-01T17:28:51.714Z,8.25
2023-04-01T17:31:49.021Z,9.80
2023-04-01T17:35:05.368Z,8.60
2023-04-01T17:38:04.019Z,6.63
2023-04-01T17:41:14.237Z,10.68
2023-04-01T17:44:37.126Z,11.98
2023-04-01T17:48:21.643Z,21.38
2023-04-01T17:50:54.272Z,27.70
2023-04-01T17:53:57.393Z,23.17
2023-04-01T18:04:35.584Z,15.05
2023-04-01T18:08:32.362Z,18.67
2023-04-01T18:11:25.090Z,20.83
2023-04-01T18:14:51.425Z,21.98
2023-04-01T18:17:42.601Z,11.48
2023-04-01T18:20:31.527Z,7.45
2023-04-01T18:27:14.190Z,8.18
2023-04-01T18:30:26.380Z,7.35
2023-04-01T18:32:47.478Z,5.20
2023-04-01T18:45:38.281Z,6.25
2023-04-01T18:51:47.426Z,3.23
2023-04-01T18:52:10.840Z,5.35
2023-04-01T18:54:46.759Z,4.22
2023-04-01T18:57:16.021Z,2.72
2023-04-01T19:11:28.146Z,3.75
2023-04-01T19:23:13.069Z,4.93
2023-04-01T19:33:13.295Z,5.28
2023-04-01T19:36:17.444Z,6.40
2023-04-01T19:39:13.819Z,8.65
2023-04-01T19:43:31.387Z,8.73
2023-04-01T19:46:35.379Z,8.82
2023-04-01T20:01:08.066Z,7.53
2023-04-01T20:04:22.745Z,8.35
2023-04-01T20:06:59.978Z,6.07
2023-04-01T20:10:26.892Z,8.35
2023-04-01T20:19:59.700Z,7.75
2023-04-01T20:23:25.674Z,4.70
2023-04-01T20:30:05.921Z,2.63
2023-04-01T20:35:14.979Z,4.82
2023-04-01T20:37:27.626Z,3.65
2023-04-01T20:43:51.715Z,4.35
2023-04-01T20:47:10.936Z,2.55
2023-04-01T20:50:57.033Z,2.47
2023-04-01T20:54:12.403Z,4.70
2023-04-01T21:00:53.412Z,1.50
2023-04-01T21:04:32.974Z,2.22
2023-04-01T21:10:56.510Z,2.28
2023-04-01T21:14:01.801Z,2.65
2023-04-01T21:17:28.918Z,3.28
2023-04-01T21:26:48.761Z,3.78
2023-04-01T21:29:39.148Z,3.20
2023-04-01T21:32:35.946Z,3.83
2023-04-01T21:36:00.412Z,2.72
2023-04-01T21:39:06.959Z,2.85
2023-04-01T21:42:25.590Z,3.23
2023-04-01T21:45:22.422Z,2.63
2023-04-01T21:48:49.182Z,3.97
2023-04-01T21:55:27.781Z,2.88
2023-04-01T22:01:26.026Z,3.25
2023-04-01T22:04:14.851Z,4.03
2023-04-01T22:07:57.719Z,4.70
2023-04-01T22:11:00.212Z,3.13
2023-04-01T22:14:12.528Z,2.95
2023-04-01T22:17:01.218Z,3.95
2023-04-01T22:23:15.994Z,5.50
2023-04-01T22:26:19.090Z,3.10
2023-04-01T22:29:10.545Z,4.65
2023-04-01T22:31:52.210Z,3.47
2023-04-01T22:35:12.422Z,3.65
2023-04-01T22:38:26.873Z,4.10
2023-04-01T22:41:34.768Z,4.60
2023-04-01T22:44:23.362Z,5.00
2023-04-01T22:47:16.405Z,4.15
2023-04-01T22:50:06.443Z,5.60
2023-04-01T22:52:41.994Z,5.22
2023-04-01T22:55:40.039Z,5.03
2023-04-01T22:59:12.570Z,4.82
2023-04-01T23:05:10.596Z,6.38
2023-04-01T23:07:54.362Z,6.50
2023-04-01T23:10:45.579Z,3.00
2023-04-01T23:13:37.031Z,3.97
2023-04-01T23:16:56.891Z,3.63
2023-04-01T23:19:37.458Z,3.75
2023-04-01T23:23:16.522Z,2.72
2023-04-01T23:26:41.010Z,2.88
2023-04-01T23:29:17.447Z,2.67
2023-04-01T23:33:00.454Z,3.40
2023-04-01T23:39:09.275Z,3.15
2023-04-01T23:42:09.422Z,2.15
2023-04-01T23:52:26.303Z,3.40
2023-04-01T23:55:24.965Z,2.70
